sensor_id;sensor_type;location;lat;lon;timestamp;temperature;humidity
14401;DHT22;7285;50.894;5.462;2023-03-24T00:00:25;11.90;1.00
14401;DHT22;7285;50.894;5.462;2023-03-24T00:02:53;11.90;1.00
14401;DHT22;7285;50.894;5.462;2023-03-24T00:05:22;11.90;1.00
14401;DHT22;7285;50.894;5.462;2023-03-24T00:07:49;11.90;36.70
14401;DHT22;7285;50.894;5.462;2023-03-24T00:10:18;11.80;99.90
14401;DHT22;7285;50.894;5.462;2023-03-24T00:12:47;11.80;99.90
14401;DHT22;7285;50.894;5.462;2023-03-24T00:15:17;11.80;99.90
14401;DHT22;7285;50.894;5.462;2023-03-24T00:17:46;11.80;99.90
14401;DHT22;7285;50.894;5.462;2023-03-24T00:20:16;11.80;99.90
14401;DHT22;7285;50.894;5.462;2023-03-24T00:22:46;11.70;1.00
14401;DHT22;7285;50.894;5.462;2023-03-24T00:25:16;11.70;1.00
14401;DHT22;7285;50.894;5.462;2023-03-24T00:27:44;11.80;1.00
14401;DHT22;7285;50.894;5.462;2023-03-24T00:30:14;11.80;1.00
14401;DHT22;7285;50.894;5.462;2023-03-24T00:32:44;11.70;1.00
14401;DHT22;7285;50.894;5.462;2023-03-24T00:35:13;11.80;1.00
14401;DHT22;7285;50.894;5.462;2023-03-24T00:37:41;11.80;1.00
14401;DHT22;7285;50.894;5.462;2023-03-24T00:40:12;11.80;1.00
14401;DHT22;7285;50.894;5.462;2023-03-24T00:42:42;11.80;1.00
14401;DHT22;7285;50.894;5.462;2023-03-24T00:45:12;11.80;1.00
14401;DHT22;7285;50.894;5.462;2023-03-24T00:47:41;11.80;1.00
14401;DHT22;7285;50.894;5.462;2023-03-24T00:50:13;11.80;1.00
14401;DHT22;7285;50.894;5.462;2023-03-24T00:52:42;11.80;1.00
14401;DHT22;7285;50.894;5.462;2023-03-24T00:55:14;11.90;1.00
14401;DHT22;7285;50.894;5.462;2023-03-24T00:57:42;11.80;1.00
14401;DHT22;7285;50.894;5.462;2023-03-24T01:00:16;11.80;1.00
14401;DHT22;7285;50.894;5.462;2023-03-24T01:02:46;11.80;1.00
14401;DHT22;7285;50.894;5.462;2023-03-24T01:05:15;11.90;1.00
14401;DHT22;7285;50.894;5.462;2023-03-24T01:07:42;11.90;1.00
14401;DHT22;7285;50.894;5.462;2023-03-24T01:10:12;11.90;1.00
14401;DHT22;7285;50.894;5.462;2023-03-24T01:12:46;11.90;1.00
14401;DHT22;7285;50.894;5.462;2023-03-24T01:15:19;11.90;1.00
14401;DHT22;7285;50.894;5.462;2023-03-24T01:17:48;11.90;1.00
14401;DHT22;7285;50.894;5.462;2023-03-24T01:20:20;11.90;1.00
14401;DHT22;7285;50.894;5.462;2023-03-24T01:22:48;12.00;1.00
14401;DHT22;7285;50.894;5.462;2023-03-24T01:25:20;11.90;1.00
14401;DHT22;7285;50.894;5.462;2023-03-24T01:27:48;12.00;1.00
14401;DHT22;7285;50.894;5.462;2023-03-24T01:30:18;12.00;1.00
14401;DHT22;7285;50.894;5.462;2023-03-24T01:32:45;12.10;99.90
14401;DHT22;7285;50.894;5.462;2023-03-24T01:35:13;12.20;99.90
14401;DHT22;7285;50.894;5.462;2023-03-24T01:37:41;12.20;99.90
14401;DHT22;7285;50.894;5.462;2023-03-24T01:40:16;12.10;99.90
14401;DHT22;7285;50.894;5.462;2023-03-24T01:42:43;12.10;99.90
14401;DHT22;7285;50.894;5.462;2023-03-24T01:45:42;12.10;99.90
14401;DHT22;7285;50.894;5.462;2023-03-24T01:48:13;12.20;99.90
14401;DHT22;7285;50.894;5.462;2023-03-24T01:50:43;12.20;75.70
14401;DHT22;7285;50.894;5.462;2023-03-24T01:53:13;12.20;21.50
14401;DHT22;7285;50.894;5.462;2023-03-24T01:55:42;12.20;96.50
14401;DHT22;7285;50.894;5.462;2023-03-24T01:58:11;12.20;37.10
14401;DHT22;7285;50.894;5.462;2023-03-24T02:00:38;12.20;1.00
14401;DHT22;7285;50.894;5.462;2023-03-24T02:03:10;12.30;1.00
14401;DHT22;7285;50.894;5.462;2023-03-24T02:05:40;12.30;1.00
14401;DHT22;7285;50.894;5.462;2023-03-24T02:08:15;12.40;99.90
14401;DHT22;7285;50.894;5.462;2023-03-24T02:10:44;12.50;1.00
14401;DHT22;7285;50.894;5.462;2023-03-24T02:13:13;12.50;1.00
14401;DHT22;7285;50.894;5.462;2023-03-24T02:15:44;12.60;99.90
14401;DHT22;7285;50.894;5.462;2023-03-24T02:18:17;12.50;99.90
14401;DHT22;7285;50.894;5.462;2023-03-24T02:21:10;12.60;1.00
14401;DHT22;7285;50.894;5.462;2023-03-24T02:27:17;12.80;1.00
14401;DHT22;7285;50.894;5.462;2023-03-24T02:30:32;12.80;1.00
14401;DHT22;7285;50.894;5.462;2023-03-24T02:36:39;12.90;1.00
14401;DHT22;7285;50.894;5.462;2023-03-24T02:39:44;13.00;99.90
14401;DHT22;7285;50.894;5.462;2023-03-24T02:42:24;13.00;1.00
14401;DHT22;7285;50.894;5.462;2023-03-24T02:45:05;13.10;1.00
14401;DHT22;7285;50.894;5.462;2023-03-24T02:47:41;13.10;99.90
14401;DHT22;7285;50.894;5.462;2023-03-24T02:50:17;13.10;1.00
14401;DHT22;7285;50.894;5.462;2023-03-24T02:52:51;13.10;1.00
14401;DHT22;7285;50.894;5.462;2023-03-24T02:55:23;13.00;1.00
14401;DHT22;7285;50.894;5.462;2023-03-24T02:57:56;12.90;99.90
14401;DHT22;7285;50.894;5.462;2023-03-24T03:00:29;12.90;99.90
14401;DHT22;7285;50.894;5.462;2023-03-24T03:03:00;12.80;1.00
14401;DHT22;7285;50.894;5.462;2023-03-24T03:05:33;12.80;99.90
14401;DHT22;7285;50.894;5.462;2023-03-24T03:08:04;12.70;1.00
14401;DHT22;7285;50.894;5.462;2023-03-24T03:10:36;12.50;1.00
14401;DHT22;7285;50.894;5.462;2023-03-24T03:13:06;12.40;99.90
14401;DHT22;7285;50.894;5.462;2023-03-24T03:15:36;12.30;1.00
14401;DHT22;7285;50.894;5.462;2023-03-24T03:18:08;12.20;1.00
14401;DHT22;7285;50.894;5.462;2023-03-24T03:20:39;12.20;99.90
14401;DHT22;7285;50.894;5.462;2023-03-24T03:23:16;12.10;99.90
14401;DHT22;7285;50.894;5.462;2023-03-24T03:25:50;12.00;1.00
14401;DHT22;7285;50.894;5.462;2023-03-24T03:28:21;12.10;99.90
14401;DHT22;7285;50.894;5.462;2023-03-24T03:30:53;12.10;99.90
14401;DHT22;7285;50.894;5.462;2023-03-24T03:33:22;12.00;1.00
14401;DHT22;7285;50.894;5.462;2023-03-24T03:35:53;12.00;1.00
14401;DHT22;7285;50.894;5.462;2023-03-24T03:38:28;12.10;99.90
14401;DHT22;7285;50.894;5.462;2023-03-24T03:41:01;12.00;99.90
14401;DHT22;7285;50.894;5.462;2023-03-24T03:43:30;12.00;99.90
14401;DHT22;7285;50.894;5.462;2023-03-24T03:45:58;11.90;99.90
14401;DHT22;7285;50.894;5.462;2023-03-24T03:48:26;11.80;1.00
14401;DHT22;7285;50.894;5.462;2023-03-24T03:50:54;11.70;1.00
14401;DHT22;7285;50.894;5.462;2023-03-24T03:53:25;11.70;1.00
14401;DHT22;7285;50.894;5.462;2023-03-24T03:55:54;11.70;99.90
14401;DHT22;7285;50.894;5.462;2023-03-24T03:58:23;11.80;99.90
14401;DHT22;7285;50.894;5.462;2023-03-24T04:00:53;11.70;99.90
14401;DHT22;7285;50.894;5.462;2023-03-24T04:03:35;11.60;1.00
14401;DHT22;7285;50.894;5.462;2023-03-24T04:06:15;11.50;1.00
14401;DHT22;7285;50.894;5.462;2023-03-24T04:08:47;11.30;99.90
14401;DHT22;7285;50.894;5.462;2023-03-24T04:11:28;11.20;1.00
14401;DHT22;7285;50.894;5.462;2023-03-24T04:14:09;11.00;1.00
14401;DHT22;7285;50.894;5.462;2023-03-24T04:16:44;10.90;1.00
14401;DHT22;7285;50.894;5.462;2023-03-24T04:19:27;10.70;1.00
14401;DHT22;7285;50.894;5.462;2023-03-24T04:22:05;10.70;1.00
14401;DHT22;7285;50.894;5.462;2023-03-24T04:24:43;10.60;99.90
14401;DHT22;7285;50.894;5.462;2023-03-24T04:27:22;10.50;1.00
14401;DHT22;7285;50.894;5.462;2023-03-24T04:30:01;10.40;1.00
14401;DHT22;7285;50.894;5.462;2023-03-24T04:32:34;10.30;99.90
14401;DHT22;7285;50.894;5.462;2023-03-24T04:35:10;10.20;99.90
14401;DHT22;7285;50.894;5.462;2023-03-24T04:37:39;10.20;1.00
14401;DHT22;7285;50.894;5.462;2023-03-24T04:40:09;10.20;1.00
14401;DHT22;7285;50.894;5.462;2023-03-24T04:42:40;10.10;99.90
14401;DHT22;7285;50.894;5.462;2023-03-24T04:45:12;10.10;99.90
14401;DHT22;7285;50.894;5.462;2023-03-24T04:47:42;10.00;99.90
14401;DHT22;7285;50.894;5.462;2023-03-24T04:50:10;10.00;99.90
14401;DHT22;7285;50.894;5.462;2023-03-24T04:52:38;9.90;99.90
14401;DHT22;7285;50.894;5.462;2023-03-24T04:55:24;9.70;1.00
14401;DHT22;7285;50.894;5.462;2023-03-24T04:57:56;9.70;1.00
14401;DHT22;7285;50.894;5.462;2023-03-24T05:00:25;9.60;1.00
14401;DHT22;7285;50.894;5.462;2023-03-24T05:02:52;9.60;1.00
14401;DHT22;7285;50.894;5.462;2023-03-24T05:05:22;9.60;1.00
14401;DHT22;7285;50.894;5.462;2023-03-24T05:07:49;9.60;1.00
14401;DHT22;7285;50.894;5.462;2023-03-24T05:10:16;9.60;1.00
14401;DHT22;7285;50.894;5.462;2023-03-24T05:12:43;9.60;99.90
14401;DHT22;7285;50.894;5.462;2023-03-24T05:15:11;9.60;1.00
14401;DHT22;7285;50.894;5.462;2023-03-24T05:17:39;9.60;1.00
14401;DHT22;7285;50.894;5.462;2023-03-24T05:20:08;9.60;1.00
14401;DHT22;7285;50.894;5.462;2023-03-24T05:22:35;9.50;1.00
14401;DHT22;7285;50.894;5.462;2023-03-24T05:25:03;9.40;99.90
14401;DHT22;7285;50.894;5.462;2023-03-24T05:27:30;9.40;99.90
14401;DHT22;7285;50.894;5.462;2023-03-24T05:29:57;9.30;1.00
14401;DHT22;7285;50.894;5.462;2023-03-24T05:32:24;9.10;99.90
14401;DHT22;7285;50.894;5.462;2023-03-24T05:34:53;9.10;1.00
14401;DHT22;7285;50.894;5.462;2023-03-24T05:37:20;9.10;1.00
14401;DHT22;7285;50.894;5.462;2023-03-24T05:39:47;9.10;1.00
14401;DHT22;7285;50.894;5.462;2023-03-24T05:42:14;9.10;1.00
14401;DHT22;7285;50.894;5.462;2023-03-24T05:44:41;9.00;99.90
14401;DHT22;7285;50.894;5.462;2023-03-24T05:47:10;8.90;1.00
14401;DHT22;7285;50.894;5.462;2023-03-24T05:49:37;8.90;99.90
14401;DHT22;7285;50.894;5.462;2023-03-24T05:52:06;8.90;99.90
14401;DHT22;7285;50.894;5.462;2023-03-24T05:54:33;9.00;99.90
14401;DHT22;7285;50.894;5.462;2023-03-24T05:57:01;9.00;75.00
14401;DHT22;7285;50.894;5.462;2023-03-24T05:59:28;8.90;99.90
14401;DHT22;7285;50.894;5.462;2023-03-24T06:01:55;8.90;99.90
14401;DHT22;7285;50.894;5.462;2023-03-24T06:04:23;8.90;1.00
14401;DHT22;7285;50.894;5.462;2023-03-24T06:06:54;8.90;1.00
14401;DHT22;7285;50.894;5.462;2023-03-24T06:09:25;8.90;1.00
14401;DHT22;7285;50.894;5.462;2023-03-24T06:11:54;8.90;1.00
14401;DHT22;7285;50.894;5.462;2023-03-24T06:14:21;8.90;99.90
14401;DHT22;7285;50.894;5.462;2023-03-24T06:16:48;9.00;99.90
14401;DHT22;7285;50.894;5.462;2023-03-24T06:19:16;9.00;99.90
14401;DHT22;7285;50.894;5.462;2023-03-24T06:21:43;9.10;1.00
14401;DHT22;7285;50.894;5.462;2023-03-24T06:24:15;9.20;99.90
14401;DHT22;7285;50.894;5.462;2023-03-24T06:26:43;9.20;1.00
14401;DHT22;7285;50.894;5.462;2023-03-24T06:29:11;9.30;99.90
14401;DHT22;7285;50.894;5.462;2023-03-24T06:31:38;9.40;59.30
14401;DHT22;7285;50.894;5.462;2023-03-24T06:34:05;9.60;99.90
14401;DHT22;7285;50.894;5.462;2023-03-24T06:36:32;9.60;99.90
14401;DHT22;7285;50.894;5.462;2023-03-24T06:39:00;9.70;26.60
14401;DHT22;7285;50.894;5.462;2023-03-24T06:41:27;9.60;1.00
14401;DHT22;7285;50.894;5.462;2023-03-24T06:43:55;9.70;99.90
14401;DHT22;7285;50.894;5.462;2023-03-24T06:46:23;9.70;97.00
14401;DHT22;7285;50.894;5.462;2023-03-24T06:48:50;9.80;24.10
14401;DHT22;7285;50.894;5.462;2023-03-24T06:51:17;9.90;1.00
14401;DHT22;7285;50.894;5.462;2023-03-24T06:53:44;9.80;1.00
14401;DHT22;7285;50.894;5.462;2023-03-24T06:56:11;9.80;99.90
14401;DHT22;7285;50.894;5.462;2023-03-24T06:58:41;9.80;1.10
14401;DHT22;7285;50.894;5.462;2023-03-24T07:01:10;9.90;1.00
14401;DHT22;7285;50.894;5.462;2023-03-24T07:03:37;9.80;99.90
14401;DHT22;7285;50.894;5.462;2023-03-24T07:06:06;10.00;1.00
14401;DHT22;7285;50.894;5.462;2023-03-24T07:08:35;10.00;1.00
14401;DHT22;7285;50.894;5.462;2023-03-24T07:11:03;10.20;1.00
14401;DHT22;7285;50.894;5.462;2023-03-24T07:13:31;10.30;99.90
14401;DHT22;7285;50.894;5.462;2023-03-24T07:15:58;10.60;1.00
14401;DHT22;7285;50.894;5.462;2023-03-24T07:18:26;10.70;1.00
14401;DHT22;7285;50.894;5.462;2023-03-24T07:20:53;10.90;99.90
14401;DHT22;7285;50.894;5.462;2023-03-24T07:23:21;11.10;99.90
14401;DHT22;7285;50.894;5.462;2023-03-24T07:25:49;11.20;1.00
14401;DHT22;7285;50.894;5.462;2023-03-24T07:28:16;11.20;99.90
14401;DHT22;7285;50.894;5.462;2023-03-24T07:30:43;11.20;99.90
14401;DHT22;7285;50.894;5.462;2023-03-24T07:33:10;11.10;99.90
14401;DHT22;7285;50.894;5.462;2023-03-24T07:35:39;11.10;1.00
14401;DHT22;7285;50.894;5.462;2023-03-24T07:38:06;11.00;99.90
14401;DHT22;7285;50.894;5.462;2023-03-24T07:40:34;10.90;99.90
14401;DHT22;7285;50.894;5.462;2023-03-24T07:43:02;10.90;99.90
14401;DHT22;7285;50.894;5.462;2023-03-24T07:45:30;11.20;99.90
14401;DHT22;7285;50.894;5.462;2023-03-24T07:47:57;11.20;1.00
14401;DHT22;7285;50.894;5.462;2023-03-24T07:50:27;11.40;99.90
14401;DHT22;7285;50.894;5.462;2023-03-24T07:52:56;11.40;1.00
14401;DHT22;7285;50.894;5.462;2023-03-24T07:55:23;11.50;1.00
14401;DHT22;7285;50.894;5.462;2023-03-24T07:57:51;11.60;1.00
14401;DHT22;7285;50.894;5.462;2023-03-24T08:00:18;11.90;1.00
14401;DHT22;7285;50.894;5.462;2023-03-24T08:02:48;12.10;99.90
14401;DHT22;7285;50.894;5.462;2023-03-24T08:05:16;12.20;99.90
14401;DHT22;7285;50.894;5.462;2023-03-24T08:07:45;12.20;99.90
14401;DHT22;7285;50.894;5.462;2023-03-24T08:10:16;12.30;1.00
14401;DHT22;7285;50.894;5.462;2023-03-24T08:12:43;12.30;1.00
14401;DHT22;7285;50.894;5.462;2023-03-24T08:15:10;12.10;1.00
14401;DHT22;7285;50.894;5.462;2023-03-24T08:17:37;12.30;1.00
14401;DHT22;7285;50.894;5.462;2023-03-24T08:20:07;12.10;1.00
14401;DHT22;7285;50.894;5.462;2023-03-24T08:22:37;12.20;1.00
14401;DHT22;7285;50.894;5.462;2023-03-24T08:25:05;12.20;1.00
14401;DHT22;7285;50.894;5.462;2023-03-24T08:27:34;12.10;1.00
14401;DHT22;7285;50.894;5.462;2023-03-24T08:30:02;12.00;1.00
14401;DHT22;7285;50.894;5.462;2023-03-24T08:32:29;12.20;1.00
14401;DHT22;7285;50.894;5.462;2023-03-24T08:34:56;12.30;1.00
14401;DHT22;7285;50.894;5.462;2023-03-24T08:37:24;12.40;1.00
14401;DHT22;7285;50.894;5.462;2023-03-24T08:39:51;12.30;1.00
14401;DHT22;7285;50.894;5.462;2023-03-24T08:42:23;12.50;1.00
14401;DHT22;7285;50.894;5.462;2023-03-24T08:44:51;12.50;1.00
14401;DHT22;7285;50.894;5.462;2023-03-24T08:47:18;12.50;1.00
14401;DHT22;7285;50.894;5.462;2023-03-24T08:49:45;12.50;1.00
14401;DHT22;7285;50.894;5.462;2023-03-24T08:52:12;12.20;1.00
14401;DHT22;7285;50.894;5.462;2023-03-24T08:54:41;12.20;99.90
14401;DHT22;7285;50.894;5.462;2023-03-24T08:57:07;12.20;1.00
14401;DHT22;7285;50.894;5.462;2023-03-24T08:59:35;12.30;1.00
14401;DHT22;7285;50.894;5.462;2023-03-24T09:02:03;12.40;99.90
14401;DHT22;7285;50.894;5.462;2023-03-24T09:04:30;12.40;99.90
14401;DHT22;7285;50.894;5.462;2023-03-24T09:06:57;12.40;99.90
14401;DHT22;7285;50.894;5.462;2023-03-24T09:09:25;12.50;99.90
14401;DHT22;7285;50.894;5.462;2023-03-24T09:11:53;12.90;99.90
14401;DHT22;7285;50.894;5.462;2023-03-24T09:14:20;13.80;99.90
14401;DHT22;7285;50.894;5.462;2023-03-24T09:16:47;13.60;1.00
14401;DHT22;7285;50.894;5.462;2023-03-24T09:19:16;13.40;1.00
14401;DHT22;7285;50.894;5.462;2023-03-24T09:21:44;13.40;1.00
14401;DHT22;7285;50.894;5.462;2023-03-24T09:24:12;13.20;1.00
14401;DHT22;7285;50.894;5.462;2023-03-24T09:26:39;13.70;1.00
14401;DHT22;7285;50.894;5.462;2023-03-24T09:29:06;13.50;1.00
14401;DHT22;7285;50.894;5.462;2023-03-24T09:31:33;13.40;1.00
14401;DHT22;7285;50.894;5.462;2023-03-24T09:34:00;13.70;1.00
14401;DHT22;7285;50.894;5.462;2023-03-24T09:36:29;14.00;1.00
14401;DHT22;7285;50.894;5.462;2023-03-24T09:38:56;14.40;1.00
14401;DHT22;7285;50.894;5.462;2023-03-24T09:41:27;14.20;1.00
14401;DHT22;7285;50.894;5.462;2023-03-24T09:43:57;14.10;1.00
14401;DHT22;7285;50.894;5.462;2023-03-24T09:46:29;14.10;1.00
14401;DHT22;7285;50.894;5.462;2023-03-24T09:48:57;14.10;1.00
14401;DHT22;7285;50.894;5.462;2023-03-24T09:51:26;14.10;1.00
14401;DHT22;7285;50.894;5.462;2023-03-24T09:53:59;14.50;1.00
14401;DHT22;7285;50.894;5.462;2023-03-24T09:56:28;15.30;1.00
14401;DHT22;7285;50.894;5.462;2023-03-24T09:59:02;15.80;99.90
14401;DHT22;7285;50.894;5.462;2023-03-24T10:01:30;15.00;99.90
14401;DHT22;7285;50.894;5.462;2023-03-24T10:03:58;14.60;99.90
14401;DHT22;7285;50.894;5.462;2023-03-24T10:06:29;14.40;99.90
14401;DHT22;7285;50.894;5.462;2023-03-24T10:09:17;14.60;99.90
14401;DHT22;7285;50.894;5.462;2023-03-24T10:11:54;14.70;99.90
14401;DHT22;7285;50.894;5.462;2023-03-24T10:14:30;14.20;99.90
14401;DHT22;7285;50.894;5.462;2023-03-24T10:17:04;14.70;99.90
14401;DHT22;7285;50.894;5.462;2023-03-24T10:19:39;15.60;99.90
14401;DHT22;7285;50.894;5.462;2023-03-24T10:22:12;16.30;99.90
14401;DHT22;7285;50.894;5.462;2023-03-24T10:24:50;16.40;99.90
14401;DHT22;7285;50.894;5.462;2023-03-24T10:27:24;15.40;99.90
14401;DHT22;7285;50.894;5.462;2023-03-24T10:29:59;14.80;99.90
14401;DHT22;7285;50.894;5.462;2023-03-24T10:32:28;14.40;99.90
14401;DHT22;7285;50.894;5.462;2023-03-24T10:34:59;14.20;99.90
14401;DHT22;7285;50.894;5.462;2023-03-24T10:37:32;13.90;99.90
14401;DHT22;7285;50.894;5.462;2023-03-24T10:40:00;13.80;99.90
14401;DHT22;7285;50.894;5.462;2023-03-24T10:42:33;13.80;99.90
14401;DHT22;7285;50.894;5.462;2023-03-24T10:45:01;14.40;99.90
14401;DHT22;7285;50.894;5.462;2023-03-24T10:47:30;14.60;99.90
14401;DHT22;7285;50.894;5.462;2023-03-24T10:50:00;14.70;99.90
14401;DHT22;7285;50.894;5.462;2023-03-24T10:52:28;14.50;99.90
14401;DHT22;7285;50.894;5.462;2023-03-24T10:55:06;14.60;99.90
14401;DHT22;7285;50.894;5.462;2023-03-24T10:57:33;14.50;99.90
14401;DHT22;7285;50.894;5.462;2023-03-24T11:00:05;14.80;99.90
14401;DHT22;7285;50.894;5.462;2023-03-24T11:02:36;15.30;99.90
14401;DHT22;7285;50.894;5.462;2023-03-24T11:05:14;15.40;99.90
14401;DHT22;7285;50.894;5.462;2023-03-24T11:07:43;15.70;99.90
14401;DHT22;7285;50.894;5.462;2023-03-24T11:10:16;16.20;99.90
14401;DHT22;7285;50.894;5.462;2023-03-24T11:12:58;15.40;76.50
14401;DHT22;7285;50.894;5.462;2023-03-24T11:15:28;15.60;99.90
14401;DHT22;7285;50.894;5.462;2023-03-24T11:17:57;15.70;99.90
14401;DHT22;7285;50.894;5.462;2023-03-24T11:20:28;16.70;99.90
14401;DHT22;7285;50.894;5.462;2023-03-24T11:22:59;17.50;65.80
14401;DHT22;7285;50.894;5.462;2023-03-24T11:25:29;17.90;1.90
14401;DHT22;7285;50.894;5.462;2023-03-24T11:27:59;17.40;1.00
14401;DHT22;7285;50.894;5.462;2023-03-24T11:30:31;17.10;21.00
14401;DHT22;7285;50.894;5.462;2023-03-24T11:32:59;16.40;1.00
14401;DHT22;7285;50.894;5.462;2023-03-24T11:35:27;15.90;22.60
14401;DHT22;7285;50.894;5.462;2023-03-24T11:37:56;15.80;99.80
14401;DHT22;7285;50.894;5.462;2023-03-24T11:40:24;15.90;98.80
14401;DHT22;7285;50.894;5.462;2023-03-24T11:42:57;16.00;97.40
14401;DHT22;7285;50.894;5.462;2023-03-24T11:45:27;15.40;99.90
14401;DHT22;7285;50.894;5.462;2023-03-24T11:47:57;15.70;99.90
14401;DHT22;7285;50.894;5.462;2023-03-24T11:50:27;16.10;99.90
14401;DHT22;7285;50.894;5.462;2023-03-24T11:53:00;17.30;99.90
14401;DHT22;7285;50.894;5.462;2023-03-24T11:55:41;17.80;99.90
14401;DHT22;7285;50.894;5.462;2023-03-24T11:58:18;19.20;81.90
14401;DHT22;7285;50.894;5.462;2023-03-24T12:00:56;19.20;1.00
14401;DHT22;7285;50.894;5.462;2023-03-24T12:03:51;18.00;1.00
14401;DHT22;7285;50.894;5.462;2023-03-24T12:06:38;17.70;1.00
14401;DHT22;7285;50.894;5.462;2023-03-24T12:09:18;17.30;1.00
14401;DHT22;7285;50.894;5.462;2023-03-24T12:14:48;16.30;1.00
14401;DHT22;7285;50.894;5.462;2023-03-24T12:17:21;16.10;10.30
14401;DHT22;7285;50.894;5.462;2023-03-24T12:20:06;16.70;1.00
14401;DHT22;7285;50.894;5.462;2023-03-24T12:22:45;16.90;1.00
14401;DHT22;7285;50.894;5.462;2023-03-24T12:25:35;17.50;1.00
14401;DHT22;7285;50.894;5.462;2023-03-24T12:28:16;17.50;8.10
14401;DHT22;7285;50.894;5.462;2023-03-24T12:30:56;16.80;1.00
14401;DHT22;7285;50.894;5.462;2023-03-24T12:33:34;16.30;1.00
14401;DHT22;7285;50.894;5.462;2023-03-24T12:36:21;16.10;1.00
14401;DHT22;7285;50.894;5.462;2023-03-24T12:39:02;15.90;1.00
14401;DHT22;7285;50.894;5.462;2023-03-24T12:41:37;16.10;31.30
14401;DHT22;7285;50.894;5.462;2023-03-24T12:47:15;16.70;1.00
14401;DHT22;7285;50.894;5.462;2023-03-24T12:49:55;17.20;1.00
14401;DHT22;7285;50.894;5.462;2023-03-24T12:52:39;17.30;1.00
14401;DHT22;7285;50.894;5.462;2023-03-24T12:55:10;16.70;1.00
14401;DHT22;7285;50.894;5.462;2023-03-24T12:57:41;16.90;1.00
14401;DHT22;7285;50.894;5.462;2023-03-24T13:00:12;17.60;1.00
14401;DHT22;7285;50.894;5.462;2023-03-24T13:02:44;18.20;1.00
14401;DHT22;7285;50.894;5.462;2023-03-24T13:05:17;18.20;1.00
14401;DHT22;7285;50.894;5.462;2023-03-24T13:07:48;17.80;1.00
14401;DHT22;7285;50.894;5.462;2023-03-24T13:10:21;17.00;1.00
14401;DHT22;7285;50.894;5.462;2023-03-24T13:12:54;16.30;1.00
14401;DHT22;7285;50.894;5.462;2023-03-24T13:15:24;16.30;1.00
14401;DHT22;7285;50.894;5.462;2023-03-24T13:18:01;16.30;1.00
14401;DHT22;7285;50.894;5.462;2023-03-24T13:20:33;16.40;1.00
14401;DHT22;7285;50.894;5.462;2023-03-24T13:23:09;16.40;1.00
14401;DHT22;7285;50.894;5.462;2023-03-24T13:25:47;16.00;1.00
14401;DHT22;7285;50.894;5.462;2023-03-24T13:28:21;15.80;1.00
14401;DHT22;7285;50.894;5.462;2023-03-24T13:30:50;15.60;1.00
14401;DHT22;7285;50.894;5.462;2023-03-24T13:33:21;16.20;1.00
14401;DHT22;7285;50.894;5.462;2023-03-24T13:36:04;17.70;1.00
14401;DHT22;7285;50.894;5.462;2023-03-24T13:38:36;18.40;1.00
14401;DHT22;7285;50.894;5.462;2023-03-24T13:41:05;18.50;1.00
14401;DHT22;7285;50.894;5.462;2023-03-24T13:43:33;18.90;1.00
14401;DHT22;7285;50.894;5.462;2023-03-24T13:46:01;18.90;1.00
14401;DHT22;7285;50.894;5.462;2023-03-24T13:48:37;18.10;1.00
14401;DHT22;7285;50.894;5.462;2023-03-24T13:51:14;18.50;1.00
14401;DHT22;7285;50.894;5.462;2023-03-24T13:53:44;18.50;1.00
14401;DHT22;7285;50.894;5.462;2023-03-24T13:56:24;18.40;1.00
14401;DHT22;7285;50.894;5.462;2023-03-24T13:59:25;18.40;1.00
14401;DHT22;7285;50.894;5.462;2023-03-24T14:02:20;17.70;1.00
14401;DHT22;7285;50.894;5.462;2023-03-24T14:05:00;17.60;1.00
14401;DHT22;7285;50.894;5.462;2023-03-24T14:07:40;17.30;1.00
14401;DHT22;7285;50.894;5.462;2023-03-24T14:10:28;16.90;1.00
14401;DHT22;7285;50.894;5.462;2023-03-24T14:13:04;16.60;1.00
14401;DHT22;7285;50.894;5.462;2023-03-24T14:15:32;16.50;1.00
14401;DHT22;7285;50.894;5.462;2023-03-24T14:18:15;16.00;1.00
14401;DHT22;7285;50.894;5.462;2023-03-24T14:20:59;15.50;1.00
14401;DHT22;7285;50.894;5.462;2023-03-24T14:23:33;15.20;1.00
14401;DHT22;7285;50.894;5.462;2023-03-24T14:26:05;14.90;1.00
14401;DHT22;7285;50.894;5.462;2023-03-24T14:28:36;14.40;1.00
14401;DHT22;7285;50.894;5.462;2023-03-24T14:31:19;12.80;1.00
14401;DHT22;7285;50.894;5.462;2023-03-24T14:34:06;11.10;14.30
14401;DHT22;7285;50.894;5.462;2023-03-24T14:36:38;10.70;99.90
14401;DHT22;7285;50.894;5.462;2023-03-24T14:39:11;10.60;1.00
14401;DHT22;7285;50.894;5.462;2023-03-24T14:41:44;10.60;1.00
14401;DHT22;7285;50.894;5.462;2023-03-24T14:44:52;10.60;10.40
14401;DHT22;7285;50.894;5.462;2023-03-24T14:47:20;10.60;1.00
14401;DHT22;7285;50.894;5.462;2023-03-24T14:49:50;10.50;99.90
14401;DHT22;7285;50.894;5.462;2023-03-24T14:52:22;10.40;99.90
14401;DHT22;7285;50.894;5.462;2023-03-24T14:54:52;10.40;1.00
14401;DHT22;7285;50.894;5.462;2023-03-24T14:57:22;10.30;99.90
14401;DHT22;7285;50.894;5.462;2023-03-24T14:59:56;10.30;99.90
14401;DHT22;7285;50.894;5.462;2023-03-24T15:02:33;10.30;1.00
14401;DHT22;7285;50.894;5.462;2023-03-24T15:05:19;10.20;99.90
14401;DHT22;7285;50.894;5.462;2023-03-24T15:08:10;10.10;1.00
14401;DHT22;7285;50.894;5.462;2023-03-24T15:10:41;10.00;99.90
14401;DHT22;7285;50.894;5.462;2023-03-24T15:13:37;10.10;98.80
14401;DHT22;7285;50.894;5.462;2023-03-24T15:16:06;10.20;1.00
14401;DHT22;7285;50.894;5.462;2023-03-24T15:18:45;10.60;1.00
14401;DHT22;7285;50.894;5.462;2023-03-24T15:21:14;11.60;1.00
14401;DHT22;7285;50.894;5.462;2023-03-24T15:23:46;12.00;1.00
14401;DHT22;7285;50.894;5.462;2023-03-24T15:26:14;12.60;99.90
14401;DHT22;7285;50.894;5.462;2023-03-24T15:28:43;13.70;1.00
14401;DHT22;7285;50.894;5.462;2023-03-24T15:31:11;15.40;1.00
14401;DHT22;7285;50.894;5.462;2023-03-24T15:33:39;16.00;99.90
14401;DHT22;7285;50.894;5.462;2023-03-24T15:36:13;16.10;99.90
14401;DHT22;7285;50.894;5.462;2023-03-24T15:38:46;15.30;99.90
14401;DHT22;7285;50.894;5.462;2023-03-24T15:41:17;14.50;99.90
14401;DHT22;7285;50.894;5.462;2023-03-24T15:43:46;13.80;1.00
14401;DHT22;7285;50.894;5.462;2023-03-24T15:46:22;14.30;99.90
14401;DHT22;7285;50.894;5.462;2023-03-24T15:48:50;15.60;99.90
14401;DHT22;7285;50.894;5.462;2023-03-24T15:51:17;16.40;1.00
14401;DHT22;7285;50.894;5.462;2023-03-24T15:53:47;16.70;1.00
14401;DHT22;7285;50.894;5.462;2023-03-24T15:56:18;16.90;1.00
14401;DHT22;7285;50.894;5.462;2023-03-24T15:58:51;17.90;99.90
14401;DHT22;7285;50.894;5.462;2023-03-24T16:01:23;18.30;1.00
14401;DHT22;7285;50.894;5.462;2023-03-24T16:03:52;18.30;1.00
14401;DHT22;7285;50.894;5.462;2023-03-24T16:06:26;16.50;1.00
14401;DHT22;7285;50.894;5.462;2023-03-24T16:08:59;15.50;1.00
14401;DHT22;7285;50.894;5.462;2023-03-24T16:11:27;14.90;99.90
14401;DHT22;7285;50.894;5.462;2023-03-24T16:13:54;14.50;99.90
14401;DHT22;7285;50.894;5.462;2023-03-24T16:16:24;14.20;1.00
14401;DHT22;7285;50.894;5.462;2023-03-24T16:18:53;13.80;99.90
14401;DHT22;7285;50.894;5.462;2023-03-24T16:21:22;13.60;1.00
14401;DHT22;7285;50.894;5.462;2023-03-24T16:23:50;13.50;1.00
14401;DHT22;7285;50.894;5.462;2023-03-24T16:26:20;13.40;1.00
14401;DHT22;7285;50.894;5.462;2023-03-24T16:28:48;13.20;1.00
14401;DHT22;7285;50.894;5.462;2023-03-24T16:31:20;13.00;99.90
14401;DHT22;7285;50.894;5.462;2023-03-24T16:33:49;12.90;99.90
14401;DHT22;7285;50.894;5.462;2023-03-24T16:36:16;12.70;99.90
14401;DHT22;7285;50.894;5.462;2023-03-24T16:38:43;12.50;99.90